Puerto Princesa, Philippines
Current Conditions -  °F | °C
As of 12:00 PM on Thursday 27 Nov 2014 (Local Time) from WBKT Reporting Station
Broken Clouds Broken Clouds  
Wind Chill: 88°   Ceiling: 28000
Heat Index: 102°   Visibility: 6mi
Dew Point: 79°   Wind: 8mph
Humidity: 75%   Direction: 40°NE
Pressure: 29.74"   Gusts: NA
Location:  9.74°N, 118.74°E
Report Text: WBKT 270400Z 04007KT 9999 FEW014 FEW015CB BKN280 31/26 Q1007
Loading
Personal Weather Stations






























Interactive Weather Map New forecast layout! Learn more

10-Day Weather Forecast

Advertisements
Track Severe Weather on mobile